Time;durP1;ratioP1;P1;durP2;ratioP2;P2;SDS_P1;SDS_P2;PMS_P1;PMS_P2;Temp;Humidity;BMP_temperature;BMP_pressure;BME280_temperature;BME280_humidity;BME280_pressure;Samples;Min_cycle;Max_cycle;Signal;HPM_P1;HPM_P2
2024/03/25 00:00:12;;;;;;;14.90;0.82;;;4.20;99.90;;;;;;5033490;28;20026;-75
2024/03/25 00:02:38;;;;;;;15.32;0.40;;;4.20;99.90;;;;;;5033802;28;20025;-75
2024/03/25 00:05:05;;;;;;;16.85;0.73;;;4.20;99.90;;;;;;5034602;28;20036;-75
2024/03/25 00:07:31;;;;;;;5.88;0.47;;;4.20;99.90;;;;;;5034302;28;20100;-74
2024/03/25 00:09:59;;;;;;;8.65;0.43;;;4.30;99.90;;;;;;5033848;28;20101;-75
2024/03/25 00:12:27;;;;;;;6.28;0.70;;;4.30;99.90;;;;;;5033775;28;20017;-75
2024/03/25 00:14:53;;;;;;;4.80;0.15;;;4.30;99.90;;;;;;5032375;28;20056;-75
2024/03/25 00:17:22;;;;;;;6.53;0.32;;;;;;;;;;5034514;28;20462;-75
2024/03/25 00:19:50;;;;;;;;;;;4.30;99.90;;;;;;5034839;28;20394;-75
2024/03/25 00:22:20;;;;;;;12.20;0.25;;;4.40;99.90;;;;;;5033890;28;19968;-75
2024/03/25 00:24:46;;;;;;;12.65;0.57;;;4.30;99.90;;;;;;5034195;28;20536;-75
2024/03/25 00:27:12;;;;;;;27.90;3.15;;;5.80;99.90;;;;;;5034757;28;20100;-75
2024/03/25 00:29:38;;;;;;;13.30;0.63;;;4.30;99.90;;;;;;5034193;28;20029;-75
2024/03/25 00:32:04;;;;;;;10.10;0.10;;;4.40;99.90;;;;;;5033228;28;20021;-75
2024/03/25 00:34:30;;;;;;;19.92;0.68;;;4.40;99.90;;;;;;5033796;28;20087;-75
2024/03/25 00:36:55;;;;;;;13.95;1.60;;;4.30;99.90;;;;;;5033040;28;20022;-74
2024/03/25 00:39:25;;;;;;;12.35;0.95;;;4.30;99.90;;;;;;5033861;28;20029;-75
2024/03/25 00:41:51;;;;;;;23.50;1.45;;;4.30;99.90;;;;;;5033779;28;20128;-75
2024/03/25 00:44:17;;;;;;;23.17;1.17;;;4.20;99.90;;;;;;5032909;28;20049;-75
2024/03/25 00:46:42;;;;;;;8.88;0.40;;;4.20;99.90;;;;;;5033967;28;20025;-75
2024/03/25 00:49:09;;;;;;;13.63;1.10;;;4.10;99.90;;;;;;5034245;28;20446;-75
2024/03/25 00:51:35;;;;;;;16.92;1.77;;;4.50;99.90;;;;;;5034093;28;20412;-75
2024/03/25 00:54:01;;;;;;;15.23;1.15;;;4.00;99.90;;;;;;5033662;28;20075;-75
2024/03/25 00:56:27;;;;;;;18.73;1.20;;;4.00;99.90;;;;;;5033925;28;20025;-75
2024/03/25 00:58:53;;;;;;;12.35;0.90;;;3.90;99.90;;;;;;5034474;28;20026;-75
2024/03/25 01:01:18;;;;;;;17.00;0.93;;;3.80;99.90;;;;;;5034235;28;20032;-74
2024/03/25 01:03:44;;;;;;;12.05;0.65;;;3.80;99.90;;;;;;5034325;28;20022;-75
2024/03/25 01:06:10;;;;;;;10.38;1.05;;;3.80;99.90;;;;;;5033803;28;20014;-75
2024/03/25 01:08:35;;;;;;;12.18;0.30;;;3.80;99.90;;;;;;5034665;28;20022;-74
2024/03/25 01:11:01;;;;;;;10.40;0.95;;;3.70;99.90;;;;;;5033335;28;20048;-75
2024/03/25 01:13:27;;;;;;;8.75;0.80;;;4.20;99.90;;;;;;5034012;28;20148;-75
2024/03/25 01:15:52;;;;;;;11.55;0.95;;;3.70;99.90;;;;;;5033541;28;20057;-75
2024/03/25 01:18:18;;;;;;;20.25;0.75;;;3.70;99.90;;;;;;5034779;28;20033;-75
2024/03/25 01:20:44;;;;;;;11.82;1.10;;;3.70;99.90;;;;;;5034284;28;20465;-75
2024/03/25 01:23:10;;;;;;;14.05;0.20;;;3.70;99.90;;;;;;5032634;28;20060;-76
2024/03/25 01:25:36;;;;;;;14.98;0.47;;;3.60;99.90;;;;;;5034392;28;20022;-76
2024/03/25 01:28:01;;;;;;;19.85;0.73;;;3.60;99.90;;;;;;5038965;28;20056;-76
2024/03/25 01:30:28;;;;;;;8.90;0.50;;;3.60;99.90;;;;;;5036539;28;20025;-76
2024/03/25 01:32:54;;;;;;;7.88;0.15;;;3.50;99.90;;;;;;5037152;28;20378;-76
2024/03/25 01:35:20;;;;;;;10.27;0.75;;;3.50;99.90;;;;;;5037834;28;20025;-76
2024/03/25 01:37:45;;;;;;;16.98;2.13;;;3.50;99.90;;;;;;5038182;28;20028;-76
2024/03/25 01:40:11;;;;;;;12.70;1.45;;;3.50;99.90;;;;;;5037548;28;20144;-78
2024/03/25 01:42:37;;;;;;;14.25;0.77;;;4.50;99.90;;;;;;5039391;28;20416;-77
2024/03/25 01:45:04;;;;;;;9.70;0.35;;;3.50;99.90;;;;;;5037514;28;20017;-77
2024/03/25 01:47:33;;;;;;;6.88;0.55;;;3.50;99.90;;;;;;5038492;28;20112;-77
2024/03/25 01:49:59;;;;;;;10.32;0.52;;;3.50;99.90;;;;;;5037491;28;20041;-77
2024/03/25 01:52:29;;;;;;;15.38;0.60;;;3.50;99.90;;;;;;5036851;28;20026;-77
2024/03/25 01:54:55;;;;;;;14.45;0.90;;;;;;;;;;5037636;28;20013;-77
2024/03/25 01:57:21;;;;;;;14.48;1.20;;;;;;;;;;5039360;28;20025;-76
2024/03/25 01:59:47;;;;;;;11.57;1.55;;;3.50;99.90;;;;;;5038932;28;20026;-76
2024/03/25 02:02:13;;;;;;;21.00;1.88;;;3.60;99.90;;;;;;5039183;28;20026;-76
2024/03/25 02:04:42;;;;;;;7.72;0.85;;;3.60;99.90;;;;;;5038929;28;20105;-76
2024/03/25 02:07:10;;;;;;;6.35;0.65;;;3.80;99.90;;;;;;5037570;28;20116;-76
2024/03/25 02:09:36;;;;;;;18.40;1.92;;;3.60;99.90;;;;;;5037334;28;20026;-76
2024/03/25 02:12:02;;;;;;;13.50;1.60;;;3.60;99.90;;;;;;5038009;28;20025;-76
2024/03/25 02:14:28;;;;;;;5.47;0.15;;;3.70;99.90;;;;;;5037792;28;20497;-76
2024/03/25 02:16:53;;;;;;;14.98;1.20;;;3.70;99.90;;;;;;5036087;28;20014;-76
2024/03/25 02:19:21;;;;;;;16.27;1.58;;;3.80;99.90;;;;;;5038490;28;20040;-76
2024/03/25 02:21:47;;;;;;;10.50;1.08;;;3.90;99.90;;;;;;5038571;28;20473;-76
2024/03/25 02:24:15;;;;;;;20.40;1.13;;;3.90;99.90;;;;;;5037591;28;20079;-76
2024/03/25 02:26:41;;;;;;;9.02;0.45;;;4.00;99.90;;;;;;5037914;28;20036;-76
2024/03/25 02:29:09;;;;;;;16.58;0.40;;;4.00;99.90;;;;;;5038176;28;20025;-76
2024/03/25 02:31:35;;;;;;;9.27;0.52;;;4.10;99.90;;;;;;5039175;28;20069;-77
2024/03/25 02:34:00;;;;;;;12.25;1.25;;;4.00;99.90;;;;;;5037247;28;20018;-76
2024/03/25 02:36:26;;;;;;;13.20;0.65;;;4.00;99.90;;;;;;5036704;28;20028;-77
2024/03/25 02:38:52;;;;;;;9.85;1.67;;;4.00;99.90;;;;;;5037079;28;20021;-77
2024/03/25 02:41:18;;;;;;;10.02;1.35;;;4.00;99.90;;;;;;5036541;28;20021;-78
2024/03/25 02:43:43;;;;;;;17.05;1.27;;;4.00;99.90;;;;;;5034991;28;20444;-77
2024/03/25 02:46:09;;;;;;;15.27;2.13;;;4.00;99.90;;;;;;5036248;28;20057;-77
2024/03/25 02:48:35;;;;;;;10.45;0.85;;;3.90;99.90;;;;;;5035644;28;20021;-77
2024/03/25 02:51:00;;;;;;;10.00;0.63;;;3.90;99.90;;;;;;5035081;28;20061;-77
2024/03/25 02:53:26;;;;;;;15.63;1.77;;;3.80;99.90;;;;;;5035195;28;20021;-78
2024/03/25 02:55:51;;;;;;;13.48;1.50;;;3.80;99.90;;;;;;5035104;28;20064;-77
2024/03/25 02:58:17;;;;;;;7.88;0.52;;;3.70;99.90;;;;;;5036978;28;20155;-77
2024/03/25 03:00:43;;;;;;;15.25;1.23;;;3.70;99.90;;;;;;5035437;28;20021;-78
2024/03/25 03:03:08;;;;;;;14.00;1.17;;;3.70;99.90;;;;;;5036609;28;20057;-77
2024/03/25 03:05:35;;;;;;;16.05;1.00;;;3.60;99.90;;;;;;5037688;28;20032;-78
2024/03/25 03:08:00;;;;;;;15.10;1.00;;;3.60;99.90;;;;;;5036940;28;20025;-78
2024/03/25 03:10:26;;;;;;;11.43;0.57;;;3.60;99.90;;;;;;5037627;28;20029;-78
2024/03/25 03:12:51;;;;;;;11.63;0.52;;;4.50;99.90;;;;;;5036401;28;20026;-78
2024/03/25 03:15:17;;;;;;;9.23;1.08;;;3.50;99.90;;;;;;5036119;28;20037;-77
2024/03/25 03:17:43;;;;;;;21.15;1.27;;;3.50;99.90;;;;;;5037169;28;20385;-77
2024/03/25 03:20:09;;;;;;;6.78;1.17;;;3.50;99.90;;;;;;5037573;28;20033;-77
2024/03/25 03:22:35;;;;;;;11.18;0.63;;;3.40;99.90;;;;;;5036943;28;20037;-77
2024/03/25 03:25:01;;;;;;;13.88;1.35;;;5.40;99.90;;;;;;5035492;28;20116;-77
2024/03/25 03:27:26;;;;;;;7.15;0.50;;;3.30;99.90;;;;;;5036987;28;20059;-77
2024/03/25 03:29:52;;;;;;;4.55;0.80;;;3.20;99.90;;;;;;5036575;28;20029;-77
2024/03/25 03:32:18;;;;;;;11.63;1.00;;;3.20;99.90;;;;;;5037689;28;20097;-77
2024/03/25 03:34:43;;;;;;;9.75;1.33;;;3.20;99.90;;;;;;5037409;28;20037;-77
2024/03/25 03:37:09;;;;;;;14.23;1.17;;;3.10;99.90;;;;;;5036189;28;20028;-77
2024/03/25 03:39:35;;;;;;;11.02;0.43;;;3.10;99.90;;;;;;5036158;28;20030;-77
2024/03/25 03:42:00;;;;;;;10.25;0.65;;;3.00;99.90;;;;;;5037690;28;20326;-76
2024/03/25 03:44:26;;;;;;;9.02;1.13;;;3.00;99.90;;;;;;5035688;28;20099;-76
2024/03/25 03:46:52;;;;;;;7.47;0.68;;;3.00;99.90;;;;;;5038516;28;20030;-76
2024/03/25 03:49:17;;;;;;;10.27;1.33;;;2.90;99.90;;;;;;5037747;28;20021;-76
2024/03/25 03:51:43;;;;;;;5.57;0.82;;;2.80;99.90;;;;;;5038748;28;20025;-76
2024/03/25 03:54:08;;;;;;;8.70;0.85;;;2.80;99.90;;;;;;5035978;28;20113;-76
2024/03/25 03:56:34;;;;;;;8.85;0.73;;;2.80;99.90;;;;;;5036956;28;20018;-76
2024/03/25 03:59:00;;;;;;;5.65;0.95;;;2.80;99.90;;;;;;5038156;28;20025;-76
2024/03/25 04:01:25;;;;;;;9.40;0.95;;;2.90;99.90;;;;;;5037998;28;20026;-76
2024/03/25 04:03:51;;;;;;;13.45;0.88;;;2.90;99.90;;;;;;5036107;28;20119;-76
2024/03/25 04:06:17;;;;;;;6.13;0.65;;;2.90;99.90;;;;;;5037087;28;20059;-77
2024/03/25 04:08:43;;;;;;;11.75;0.98;;;2.80;99.90;;;;;;5037492;28;20049;-77
2024/03/25 04:11:10;;;;;;;9.15;0.65;;;2.90;99.90;;;;;;5039555;28;20035;-77
2024/03/25 04:13:36;;;;;;;8.43;0.68;;;2.80;99.90;;;;;;5035876;28;20025;-77
2024/03/25 04:16:04;;;;;;;7.78;0.57;;;2.80;99.90;;;;;;5037795;28;20440;-77
2024/03/25 04:18:30;;;;;;;11.02;0.85;;;2.80;99.90;;;;;;5038652;28;20017;-77
2024/03/25 04:20:56;;;;;;;9.18;0.73;;;;;;;;;;5037665;28;20409;-76
2024/03/25 04:23:22;;;;;;;7.90;1.13;;;2.80;99.90;;;;;;5037889;28;20037;-76
2024/03/25 04:25:48;;;;;;;12.85;1.20;;;2.80;99.90;;;;;;5037434;28;20091;-76
2024/03/25 04:28:14;;;;;;;11.60;0.90;;;2.80;99.90;;;;;;5037029;28;20030;-76
2024/03/25 04:30:40;;;;;;;15.32;0.88;;;2.80;99.90;;;;;;5038089;28;20505;-76
2024/03/25 04:33:06;;;;;;;17.08;0.38;;;2.90;99.90;;;;;;5037114;28;20421;-76
2024/03/25 04:35:32;;;;;;;12.90;0.40;;;2.80;99.90;;;;;;5037129;28;20029;-76
2024/03/25 04:37:57;;;;;;;13.00;1.02;;;2.90;99.90;;;;;;5039425;28;20083;-76
2024/03/25 04:40:23;;;;;;;11.02;0.35;;;2.90;99.90;;;;;;5038779;28;20064;-76
2024/03/25 04:42:48;;;;;;;9.70;0.65;;;2.90;99.90;;;;;;5036474;28;20026;-76
2024/03/25 04:45:14;;;;;;;12.45;0.43;;;2.90;99.90;;;;;;5037722;28;20029;-76
2024/03/25 04:47:40;;;;;;;15.07;0.43;;;2.80;99.90;;;;;;5036050;28;20056;-76
2024/03/25 04:50:06;;;;;;;7.57;0.38;;;2.80;99.90;;;;;;5036314;28;20130;-76
2024/03/25 04:52:32;;;;;;;7.95;0.52;;;2.70;99.90;;;;;;5037126;28;20091;-76
2024/03/25 04:54:58;;;;;;;8.98;0.43;;;2.70;99.90;;;;;;5037829;28;20037;-76
2024/03/25 04:57:24;;;;;;;7.18;0.68;;;2.60;99.90;;;;;;5038230;28;20025;-76
2024/03/25 04:59:49;;;;;;;5.95;0.60;;;2.60;99.90;;;;;;5036979;28;20030;-76
2024/03/25 05:02:15;;;;;;;10.48;1.05;;;2.60;99.90;;;;;;5041784;28;20488;-76
2024/03/25 05:04:41;;;;;;;8.25;0.50;;;2.50;99.90;;;;;;5040435;28;20029;-76
2024/03/25 05:07:07;;;;;;;10.05;0.80;;;2.50;99.90;;;;;;5042926;28;20061;-76
2024/03/25 05:09:32;;;;;;;14.50;0.68;;;2.80;99.90;;;;;;5041957;28;20159;-76
2024/03/25 05:11:58;;;;;;;6.25;0.63;;;2.50;99.90;;;;;;5041121;28;20385;-76
2024/03/25 05:14:24;;;;;;;12.98;1.02;;;2.60;99.90;;;;;;5039755;28;20021;-76
2024/03/25 05:16:52;;;;;;;10.10;1.27;;;2.60;99.90;;;;;;5040017;28;20025;-76
2024/03/25 05:19:17;;;;;;;17.00;0.70;;;2.60;99.90;;;;;;5039956;28;20033;-76
2024/03/25 05:21:43;;;;;;;11.43;0.68;;;2.60;99.90;;;;;;5040179;28;20037;-76
2024/03/25 05:24:08;;;;;;;12.68;1.13;;;2.70;99.90;;;;;;5042124;28;20032;-76
2024/03/25 05:26:34;;;;;;;10.18;1.35;;;2.70;99.90;;;;;;5042487;28;20026;-76
2024/03/25 05:28:59;;;;;;;17.15;1.42;;;2.70;99.90;;;;;;5041796;28;20105;-77
2024/03/25 05:31:25;;;;;;;10.52;1.27;;;2.70;99.90;;;;;;5040438;28;20021;-77
2024/03/25 05:33:51;;;;;;;9.15;1.27;;;2.70;99.90;;;;;;5040281;28;20049;-77
2024/03/25 05:36:16;;;;;;;12.73;1.80;;;4.10;99.90;;;;;;5040441;28;20548;-77
2024/03/25 05:38:42;;;;;;;15.57;1.50;;;2.70;99.90;;;;;;5039779;28;20100;-76
2024/03/25 05:41:08;;;;;;;15.20;1.88;;;2.70;99.90;;;;;;5038331;28;20473;-77
2024/03/25 05:43:34;;;;;;;17.20;1.70;;;2.70;99.90;;;;;;5038901;28;20029;-77
2024/03/25 05:46:00;;;;;;;13.18;1.33;;;2.70;99.90;;;;;;5040158;28;20535;-77
2024/03/25 05:48:25;;;;;;;12.48;1.35;;;2.70;99.90;;;;;;5040514;28;20068;-77
2024/03/25 05:51:07;;;;;;;9.80;1.15;;;2.70;99.90;;;;;;5040639;28;20061;-77
2024/03/25 05:53:34;;;;;;;7.07;1.10;;;2.80;99.90;;;;;;5040232;28;20029;-77
2024/03/25 05:55:59;;;;;;;14.07;1.83;;;2.70;99.90;;;;;;5040519;28;20044;-76
2024/03/25 05:58:25;;;;;;;16.33;1.80;;;2.80;99.90;;;;;;5040169;28;20465;-76
2024/03/25 06:00:52;;;;;;;14.10;2.00;;;2.80;99.90;;;;;;5040086;28;20032;-76
2024/03/25 06:03:18;;;;;;;13.48;1.85;;;2.80;99.90;;;;;;5040141;28;20088;-76
2024/03/25 06:05:44;;;;;;;13.60;1.50;;;2.80;99.90;;;;;;5039486;28;20441;-76
2024/03/25 06:08:18;;;;;;;7.53;1.52;;;2.80;99.90;;;;;;5040723;28;20374;-77
2024/03/25 06:10:44;;;;;;;13.35;1.63;;;2.80;99.90;;;;;;5038958;28;20025;-77
2024/03/25 06:13:10;;;;;;;13.35;1.58;;;2.80;99.90;;;;;;5039780;28;20056;-76
2024/03/25 06:15:35;;;;;;;9.48;2.45;;;2.80;99.90;;;;;;5040051;28;20100;-76
2024/03/25 06:18:01;;;;;;;9.02;1.17;;;2.80;99.90;;;;;;5037795;28;20080;-78
2024/03/25 06:20:26;;;;;;;10.43;1.40;;;2.80;99.90;;;;;;5037915;28;20030;-77
2024/03/25 06:22:52;;;;;;;6.45;1.52;;;2.90;99.90;;;;;;5037275;28;20032;-77
2024/03/25 06:25:18;;;;;;;15.60;1.75;;;3.00;99.90;;;;;;5039483;28;20489;-76
2024/03/25 06:27:44;;;;;;;11.65;2.00;;;;;;;;;;5038480;28;20057;-76
2024/03/25 06:35:43;;;;;;;6.65;0.98;;;3.30;99.90;;;;;;5027824;28;20047;-77
2024/03/25 06:38:12;;;;;;;10.27;1.63;;;3.30;99.90;;;;;;5039675;28;20026;-77
2024/03/25 06:40:38;;;;;;;17.00;2.47;;;3.40;99.90;;;;;;5039460;28;20089;-77
2024/03/25 06:43:04;;;;;;;15.77;1.92;;;3.60;99.90;;;;;;5037729;28;20022;-77
2024/03/25 06:45:30;;;;;;;17.05;1.52;;;3.70;99.90;;;;;;5038669;28;20025;-78
2024/03/25 06:48:00;;;;;;;12.07;1.60;;;3.80;99.90;;;;;;5038647;28;20025;-77
2024/03/25 06:50:25;;;;;;;12.15;1.33;;;3.90;99.90;;;;;;5036486;28;20401;-77
2024/03/25 06:52:51;;;;;;;13.02;1.00;;;4.00;99.90;;;;;;5037770;28;20021;-77
2024/03/25 06:55:18;;;;;;;10.98;0.90;;;4.10;99.90;;;;;;5036990;28;20433;-78
2024/03/25 06:57:44;;;;;;;14.13;1.48;;;4.20;99.90;;;;;;5036904;28;20021;-77
2024/03/25 07:00:12;;;;;;;16.38;1.50;;;4.40;99.90;;;;;;5036186;28;20021;-78
2024/03/25 07:02:41;;;;;;;13.13;1.13;;;4.30;99.90;;;;;;5036462;28;20036;-78
2024/03/25 07:05:07;;;;;;;13.70;2.28;;;4.50;99.90;;;;;;5035925;28;20047;-78
2024/03/25 07:07:34;;;;;;;14.63;1.58;;;4.60;99.90;;;;;;5035603;28;20035;-78
2024/03/25 07:10:02;;;;;;;12.23;1.80;;;4.80;99.90;;;;;;5034664;28;20427;-78
2024/03/25 07:12:28;;;;;;;11.95;1.15;;;4.80;99.90;;;;;;5034254;28;20389;-78
2024/03/25 07:14:54;;;;;;;11.63;1.58;;;5.00;99.90;;;;;;5035579;28;20021;-78
2024/03/25 07:17:21;;;;;;;10.27;1.73;;;;;;;;;;5034577;28;20017;-78
2024/03/25 07:19:47;;;;;;;10.82;2.05;;;;;;;;;;5035845;28;20388;-78
2024/03/25 07:22:13;;;;;;;12.15;1.40;;;5.30;99.90;;;;;;5035571;28;20064;-78
2024/03/25 07:24:38;;;;;;;15.88;2.13;;;5.30;99.90;;;;;;5035202;28;20034;-78
2024/03/25 07:27:04;;;;;;;9.13;1.30;;;5.40;99.90;;;;;;5035047;28;20029;-78
2024/03/25 07:29:30;;;;;;;11.77;1.05;;;5.50;99.90;;;;;;5035752;28;20559;-78
2024/03/25 07:31:56;;;;;;;7.95;1.35;;;;;;;;;;5035578;28;20028;-80
2024/03/25 07:34:22;;;;;;;12.70;1.33;;;;;;;;;;5034014;28;20026;-79
2024/03/25 07:36:50;;;;;;;11.93;1.00;;;6.00;99.90;;;;;;5034981;28;20028;-79
2024/03/25 07:39:16;;;;;;;11.80;1.08;;;7.60;99.90;;;;;;5035267;28;20358;-79
2024/03/25 07:41:41;;;;;;;14.43;1.02;;;6.10;99.90;;;;;;5034472;28;20032;-79
2024/03/25 07:44:07;;;;;;;16.27;1.95;;;6.20;99.90;;;;;;5034281;28;20029;-79
2024/03/25 07:46:40;;;;;;;14.07;2.13;;;6.40;99.90;;;;;;5034349;28;20029;-78
2024/03/25 07:49:09;;;;;;;12.25;1.55;;;6.50;99.90;;;;;;5033210;28;20021;-79
2024/03/25 07:51:39;;;;;;;12.00;2.25;;;6.60;99.90;;;;;;5034916;28;20087;-78
2024/03/25 07:54:05;;;;;;;18.00;1.63;;;6.70;99.90;;;;;;5034436;28;20049;-78
2024/03/25 07:56:32;;;;;;;12.50;1.20;;;6.80;99.90;;;;;;5034736;28;20025;-78
2024/03/25 07:58:59;;;;;;;13.77;1.17;;;6.90;99.90;;;;;;5034547;28;20021;-78
2024/03/25 08:01:25;;;;;;;7.63;1.08;;;6.90;99.90;;;;;;5034367;28;20017;-78
2024/03/25 08:03:51;;;;;;;14.63;1.33;;;7.10;99.90;;;;;;5032983;28;20025;-75
2024/03/25 08:06:21;;;;;;;16.33;1.02;;;;;;;;;;5033908;28;20013;-76
2024/03/25 08:08:47;;;;;;;21.55;1.20;;;7.30;99.90;;;;;;5032569;28;20060;-76
2024/03/25 08:11:13;;;;;;;13.27;1.33;;;7.50;99.90;;;;;;5032638;28;20069;-80
2024/03/25 08:13:39;;;;;;;17.02;1.02;;;7.40;99.90;;;;;;5037133;28;20033;-79
2024/03/25 08:16:05;;;;;;;16.58;1.27;;;7.50;99.90;;;;;;5038038;28;20516;-80
2024/03/25 08:18:31;;;;;;;9.88;1.60;;;7.60;99.90;;;;;;5038233;28;20021;-80
2024/03/25 08:20:56;;;;;;;14.70;1.92;;;7.80;99.90;;;;;;5036517;28;20504;-79
2024/03/25 08:23:22;;;;;;;13.07;1.10;;;7.80;99.90;;;;;;5037727;28;20026;-80
2024/03/25 08:25:47;;;;;;;15.48;1.98;;;7.90;99.90;;;;;;5037841;28;20088;-80
2024/03/25 08:28:13;;;;;;;11.05;1.10;;;8.00;99.90;;;;;;5038057;28;20363;-80
2024/03/25 08:30:38;;;;;;;13.25;0.80;;;8.10;99.90;;;;;;5036910;28;20029;-80
2024/03/25 08:33:04;;;;;;;10.02;1.30;;;8.20;99.90;;;;;;5036313;28;20036;-80
2024/03/25 08:35:30;;;;;;;5.80;0.38;;;8.20;99.90;;;;;;5040443;28;20100;-80
2024/03/25 08:37:55;;;;;;;12.90;1.65;;;8.30;99.90;;;;;;5043108;28;20071;-79
2024/03/25 08:40:21;;;;;;;15.95;0.95;;;8.40;99.90;;;;;;5044895;28;20373;-80
2024/03/25 08:42:46;;;;;;;18.70;1.85;;;8.40;99.90;;;;;;5042726;28;20396;-80
2024/03/25 08:45:12;;;;;;;16.85;1.50;;;8.70;99.90;;;;;;5043227;28;20025;-80
2024/03/25 08:47:40;;;;;;;7.20;0.70;;;;;;;;;;5045276;28;20208;-81
2024/03/25 08:50:06;;;;;;;10.20;0.75;;;8.80;99.90;;;;;;5044823;28;20036;-80
2024/03/25 08:52:35;;;;;;;13.68;2.58;;;9.00;99.90;;;;;;5042896;28;20022;-80
2024/03/25 08:55:01;;;;;;;13.43;0.45;;;9.30;99.90;;;;;;5043256;28;20025;-80
2024/03/25 08:57:26;;;;;;;9.95;1.55;;;9.30;99.90;;;;;;5044491;28;20047;-80
2024/03/25 08:59:52;;;;;;;14.20;0.98;;;9.30;99.90;;;;;;5042870;28;20025;-80
2024/03/25 09:02:17;;;;;;;10.93;0.70;;;9.40;99.90;;;;;;5043698;28;20021;-80
2024/03/25 09:04:44;;;;;;;19.48;1.23;;;9.50;99.90;;;;;;5044749;28;20453;-80
2024/03/25 09:07:09;;;;;;;8.70;0.52;;;9.50;99.90;;;;;;5045233;28;20032;-80
2024/03/25 09:12:19;;;;;;;10.23;0.60;;;9.60;99.90;;;;;;5044868;28;20088;-80
2024/03/25 09:14:45;;;;;;;10.77;1.52;;;9.60;99.90;;;;;;5044989;28;20029;-80
2024/03/25 09:17:12;;;;;;;18.85;2.42;;;9.60;99.90;;;;;;5043671;28;20022;-80
2024/03/25 09:19:38;;;;;;;6.60;0.45;;;9.70;99.90;;;;;;5042780;28;20477;-80
2024/03/25 09:22:05;;;;;;;9.32;0.95;;;9.80;99.90;;;;;;5043051;28;20103;-80
2024/03/25 09:24:30;;;;;;;14.40;1.38;;;9.80;99.90;;;;;;5045237;28;20025;-80
2024/03/25 09:26:56;;;;;;;13.10;1.38;;;9.90;99.90;;;;;;5044121;28;20068;-80
2024/03/25 09:29:21;;;;;;;17.65;1.00;;;10.50;99.90;;;;;;5045317;28;20021;-79
2024/03/25 09:31:47;;;;;;;17.98;1.65;;;10.20;99.90;;;;;;5045712;28;20513;-80
2024/03/25 09:34:12;;;;;;;9.35;0.95;;;10.20;99.90;;;;;;5045644;28;20033;-80
2024/03/25 09:36:38;;;;;;;16.23;1.65;;;10.30;99.90;;;;;;5043746;28;20060;-80
2024/03/25 09:39:04;;;;;;;14.05;1.60;;;;;;;;;;5044477;28;20037;-80
2024/03/25 09:41:34;;;;;;;12.95;0.77;;;10.20;99.90;;;;;;5044247;28;20029;-80
2024/03/25 09:44:00;;;;;;;10.68;1.13;;;10.10;99.90;;;;;;5045001;28;20013;-81
2024/03/25 09:46:26;;;;;;;17.17;2.20;;;10.10;99.90;;;;;;5042638;28;20441;-79
2024/03/25 09:48:53;;;;;;;12.90;1.27;;;10.10;99.90;;;;;;5041977;28;20057;-80
2024/03/25 09:51:19;;;;;;;17.17;2.95;;;10.40;99.90;;;;;;5040967;28;20026;-81
2024/03/25 09:53:45;;;;;;;15.52;1.10;;;10.40;99.90;;;;;;5042280;28;20029;-80
2024/03/25 09:56:12;;;;;;;8.20;1.52;;;10.60;99.90;;;;;;5041307;28;20413;-80
2024/03/25 09:58:39;;;;;;;9.32;0.80;;;11.10;99.90;;;;;;5041523;28;20478;-80
2024/03/25 10:01:05;;;;;;;8.10;0.98;;;11.10;99.90;;;;;;5042128;28;20029;-80
2024/03/25 10:03:31;;;;;;;15.00;1.20;;;;;;;;;;5042127;28;20436;-79
2024/03/25 10:05:56;;;;;;;9.18;1.08;;;11.10;99.90;;;;;;5042083;28;20036;-80
2024/03/25 10:08:22;;;;;;;6.38;0.40;;;11.20;99.90;;;;;;5041812;28;20021;-79
2024/03/25 10:10:48;;;;;;;7.80;0.80;;;11.20;99.90;;;;;;5039365;28;20145;-79
2024/03/25 10:13:15;;;;;;;6.45;1.45;;;11.10;99.90;;;;;;5041543;28;20021;-80
2024/03/25 10:15:41;;;;;;;8.27;1.08;;;11.10;99.90;;;;;;5040891;28;20014;-80
2024/03/25 10:18:08;;;;;;;11.07;1.83;;;11.00;99.90;;;;;;5042392;28;20022;-80
2024/03/25 10:20:34;;;;;;;10.90;1.65;;;11.00;99.90;;;;;;5040108;28;20031;-80
2024/03/25 10:23:00;;;;;;;11.20;1.60;;;11.00;99.90;;;;;;5039234;28;20025;-80
2024/03/25 10:25:27;;;;;;;8.18;1.80;;;11.10;99.90;;;;;;5041635;28;20029;-80
2024/03/25 10:27:58;;;;;;;9.55;1.45;;;11.20;99.90;;;;;;5040501;28;20125;-80
2024/03/25 10:30:24;;;;;;;12.00;2.00;;;11.40;99.90;;;;;;5040966;28;20018;-80
2024/03/25 10:33:04;;;;;;;10.38;2.92;;;12.50;99.90;;;;;;5040237;28;20029;-80
2024/03/25 10:35:31;;;;;;;13.35;1.55;;;11.70;99.90;;;;;;5038408;28;20021;-78
2024/03/25 10:38:04;;;;;;;14.23;2.53;;;11.90;99.90;;;;;;5037939;28;20385;-79
2024/03/25 10:40:32;;;;;;;10.40;2.25;;;11.90;99.90;;;;;;5037341;28;20025;-79
2024/03/25 10:43:02;;;;;;;15.90;2.05;;;11.80;99.90;;;;;;5037789;28;20021;-79
2024/03/25 10:45:30;;;;;;;10.52;2.10;;;12.10;99.90;;;;;;5036405;28;20048;-79
2024/03/25 10:48:23;;;;;;;10.40;1.48;;;12.10;99.90;;;;;;5037209;28;20028;-79
2024/03/25 10:50:50;;;;;;;10.57;0.70;;;12.20;99.90;;;;;;5029396;28;20212;-79
2024/03/25 10:53:18;;;;;;;7.35;1.50;;;12.30;99.90;;;;;;5037620;28;20073;-79
2024/03/25 10:55:50;;;;;;;15.23;1.83;;;12.40;99.90;;;;;;5036885;28;20017;-78
2024/03/25 10:58:16;;;;;;;11.68;2.00;;;12.40;99.90;;;;;;5037635;28;20060;-78
2024/03/25 11:00:43;;;;;;;6.38;1.60;;;12.40;99.90;;;;;;5038789;28;20052;-78
2024/03/25 11:03:10;;;;;;;8.65;2.08;;;12.40;99.90;;;;;;5038925;28;20064;-79
2024/03/25 11:05:36;;;;;;;5.78;1.42;;;12.40;99.90;;;;;;5040104;28;20029;-78
2024/03/25 11:08:15;;;;;;;9.77;2.88;;;12.50;99.90;;;;;;5038372;28;20025;-79
2024/03/25 11:10:46;;;;;;;8.13;2.40;;;12.70;99.90;;;;;;5039237;28;20029;-78
2024/03/25 11:13:20;;;;;;;4.97;2.08;;;12.80;99.90;;;;;;5037896;28;20022;-79
2024/03/25 11:15:49;;;;;;;5.25;1.85;;;12.80;99.90;;;;;;5038225;28;20088;-79
2024/03/25 11:18:17;;;;;;;10.80;2.17;;;12.70;99.90;;;;;;5036659;28;20389;-80
2024/03/25 11:20:46;;;;;;;8.23;1.75;;;12.60;99.90;;;;;;5036865;28;20074;-80
2024/03/25 11:23:13;;;;;;;7.93;1.80;;;12.50;99.90;;;;;;5037188;28;20048;-80
2024/03/25 11:25:40;;;;;;;4.00;1.50;;;12.30;99.90;;;;;;5037411;28;20025;-80
2024/03/25 11:28:07;;;;;;;4.68;1.63;;;12.40;99.90;;;;;;5035770;28;20018;-79
2024/03/25 11:30:32;;;;;;;3.95;1.23;;;12.70;99.90;;;;;;5036195;28;20485;-80
2024/03/25 11:33:02;;;;;;;6.43;2.88;;;12.90;99.90;;;;;;5037788;28;20028;-79
2024/03/25 11:35:28;;;;;;;6.88;1.35;;;13.20;99.90;;;;;;5037663;28;20028;-79
2024/03/25 11:37:54;;;;;;;4.65;1.30;;;13.50;99.90;;;;;;5035954;28;20390;-79
2024/03/25 11:40:19;;;;;;;5.25;0.80;;;13.40;99.90;;;;;;5036644;28;20025;-79
2024/03/25 11:42:46;;;;;;;5.25;0.75;;;13.40;99.90;;;;;;5036118;28;20040;-79
2024/03/25 11:45:23;;;;;;;7.05;1.50;;;13.60;99.90;;;;;;5038013;28;20030;-80
2024/03/25 11:47:49;;;;;;;5.13;1.15;;;13.70;99.90;;;;;;5036128;28;20028;-79
2024/03/25 11:50:16;;;;;;;5.57;1.00;;;13.90;99.90;;;;;;5037105;28;20033;-79
2024/03/25 11:52:42;;;;;;;5.75;1.40;;;13.90;99.90;;;;;;5036185;28;20013;-79
2024/03/25 11:55:09;;;;;;;4.82;1.50;;;14.00;99.90;;;;;;5035622;28;20064;-79
2024/03/25 11:57:36;;;;;;;6.35;1.25;;;14.20;99.90;;;;;;5036713;28;20083;-79
2024/03/25 12:00:06;;;;;;;6.70;1.30;;;14.30;99.90;;;;;;5036437;28;20021;-79
2024/03/25 12:02:32;;;;;;;5.53;0.98;;;14.50;99.90;;;;;;5037327;28;20028;-79
2024/03/25 12:04:58;;;;;;;5.32;0.90;;;14.70;99.90;;;;;;5036031;28;20489;-79
2024/03/25 12:07:24;;;;;;;10.30;2.08;;;14.80;99.90;;;;;;5036986;28;20103;-80
2024/03/25 12:12:39;;;;;;;6.30;0.85;;;14.80;99.90;;;;;;5037099;28;20111;-79
2024/03/25 12:15:06;;;;;;;4.85;0.50;;;15.00;99.90;;;;;;5036656;28;20424;-79
2024/03/25 12:17:33;;;;;;;3.88;0.50;;;15.10;99.90;;;;;;5037931;28;20064;-79
2024/03/25 12:20:09;;;;;;;8.52;2.20;;;15.20;99.90;;;;;;5037249;28;20060;-79
2024/03/25 12:22:35;;;;;;;4.63;0.52;;;15.20;99.90;;;;;;5035816;28;20029;-79
2024/03/25 12:25:03;;;;;;;3.35;0.30;;;;;;;;;;5035829;28;20480;-79
2024/03/25 12:27:29;;;;;;;7.13;0.70;;;15.30;99.90;;;;;;5037103;28;20032;-79
2024/03/25 12:30:01;;;;;;;2.95;0.35;;;15.50;99.90;;;;;;5036412;28;20414;-79
2024/03/25 12:32:43;;;;;;;3.97;0.43;;;15.70;99.90;;;;;;5036002;28;20052;-79
2024/03/25 12:35:13;;;;;;;4.45;0.47;;;15.50;97.30;;;;;;5036013;28;20496;-79
2024/03/25 12:37:40;;;;;;;1.95;0.10;;;15.50;97.50;;;;;;5036328;28;20397;-79
2024/03/25 12:40:09;;;;;;;3.50;0.30;;;15.50;98.90;;;;;;5036356;28;20025;-79
2024/03/25 12:42:34;;;;;;;5.05;0.70;;;15.90;98.50;;;;;;5038127;28;20489;-80
2024/03/25 12:45:00;;;;;;;3.17;0.10;;;15.90;98.70;;;;;;5037666;28;20037;-79
2024/03/25 12:47:26;;;;;;;2.10;0.30;;;16.00;98.20;;;;;;5036085;28;20084;-79
2024/03/25 12:49:52;;;;;;;1.90;0.40;;;16.20;98.70;;;;;;5036000;28;20029;-79
2024/03/25 12:52:18;;;;;;;4.28;0.03;;;16.40;97.70;;;;;;5037536;28;20036;-79
2024/03/25 12:54:43;;;;;;;3.08;0.73;;;16.50;96.30;;;;;;5038198;28;20017;-79
2024/03/25 12:57:11;;;;;;;1.50;0.20;;;16.50;95.80;;;;;;5036850;28;20022;-79
2024/03/25 12:59:36;;;;;;;2.67;0.10;;;16.60;96.60;;;;;;5036336;28;20025;-79